createdAt,value
2018-05-13T00:01:47.786Z,48.90
2018-05-13T00:04:14.106Z,49.00
2018-05-13T00:06:40.390Z,48.50
2018-05-13T00:09:06.682Z,48.10
2018-05-13T00:11:33.929Z,48.70
2018-05-13T00:14:00.346Z,48.20
2018-05-13T00:16:26.615Z,48.40
2018-05-13T00:18:53.659Z,49.50
2018-05-13T00:21:19.925Z,48.60
2018-05-13T00:23:46.182Z,49.50
2018-05-13T00:26:12.466Z,50.20
2018-05-13T00:28:38.735Z,50.20
2018-05-13T00:31:05.018Z,49.90
2018-05-13T00:33:32.030Z,50.80
2018-05-13T00:35:58.298Z,50.50
2018-05-13T00:38:25.278Z,50.60
2018-05-13T00:40:51.546Z,50.40
2018-05-13T00:43:17.827Z,50.90
2018-05-13T00:45:44.104Z,49.90
2018-05-13T00:48:10.373Z,50.50
2018-05-13T00:50:36.631Z,50.40
2018-05-13T00:53:02.926Z,50.30
2018-05-13T00:55:29.169Z,50.00
2018-05-13T00:57:55.451Z,49.80
2018-05-13T01:00:21.746Z,50.10
2018-05-13T01:02:48.018Z,50.00
2018-05-13T01:05:15.029Z,51.00
2018-05-13T01:07:41.325Z,50.70
2018-05-13T01:10:07.586Z,50.80
2018-05-13T01:12:33.862Z,51.80
2018-05-13T01:15:00.898Z,52.60
2018-05-13T01:17:27.149Z,52.40
2018-05-13T01:19:54.161Z,53.50
2018-05-13T01:22:20.413Z,53.40
2018-05-13T01:24:47.453Z,53.80
2018-05-13T01:27:13.702Z,54.00
2018-05-13T01:29:39.990Z,54.50
2018-05-13T01:32:06.293Z,54.90
2018-05-13T01:34:32.550Z,54.60
2018-05-13T01:36:58.834Z,54.30
2018-05-13T01:39:25.086Z,54.10
2018-05-13T01:41:51.366Z,53.90
2018-05-13T01:44:17.655Z,55.00
2018-05-13T01:46:43.935Z,56.10
2018-05-13T01:49:10.937Z,57.50
2018-05-13T01:51:37.230Z,57.20
2018-05-13T01:54:03.502Z,58.20
2018-05-13T01:56:29.793Z,57.70
2018-05-13T01:58:56.054Z,57.50
2018-05-13T02:01:22.337Z,58.10
2018-05-13T02:03:49.346Z,59.00
2018-05-13T02:06:15.625Z,59.40
2018-05-13T02:08:41.890Z,59.20
2018-05-13T02:11:08.161Z,59.10
2018-05-13T02:13:35.185Z,58.90
2018-05-13T02:16:01.443Z,58.80
2018-05-13T02:18:28.459Z,58.60
2018-05-13T02:20:54.814Z,58.60
2018-05-13T02:23:21.240Z,57.90
2018-05-13T02:25:47.502Z,59.00
2018-05-13T02:28:13.773Z,58.80
2018-05-13T02:30:46.909Z,58.60
2018-05-13T02:33:13.202Z,58.30
2018-05-13T02:35:39.485Z,57.90
2018-05-13T02:38:05.741Z,57.00
2018-05-13T02:40:31.994Z,57.70
2018-05-13T02:42:58.254Z,57.20
2018-05-13T02:45:25.284Z,58.80
2018-05-13T02:47:51.551Z,59.20
2018-05-13T02:50:17.837Z,59.20
2018-05-13T02:52:44.142Z,59.20
2018-05-13T02:55:10.409Z,59.20
2018-05-13T02:57:36.693Z,59.50
2018-05-13T03:00:02.987Z,59.70
2018-05-13T03:02:30.050Z,62.50
2018-05-13T03:04:56.329Z,62.00
2018-05-13T03:07:22.610Z,62.90
2018-05-13T03:09:48.882Z,63.00
2018-05-13T03:12:15.165Z,62.70
2018-05-13T03:14:41.438Z,63.10
2018-05-13T03:17:07.738Z,63.10
2018-05-13T03:19:34.033Z,70.70
2018-05-13T03:22:01.035Z,78.30
2018-05-13T03:24:27.294Z,78.30
2018-05-13T03:26:53.571Z,79.70
2018-05-13T03:29:19.829Z,84.30
2018-05-13T03:31:46.101Z,86.20
2018-05-13T03:34:13.130Z,86.80
2018-05-13T03:36:39.423Z,86.80
2018-05-13T03:39:05.693Z,85.10
2018-05-13T03:41:31.985Z,86.10
2018-05-13T03:43:58.291Z,87.70
2018-05-13T03:46:24.597Z,87.50
2018-05-13T03:48:51.623Z,88.40
2018-05-13T03:51:17.890Z,88.40
2018-05-13T03:53:44.146Z,90.70
2018-05-13T03:56:10.435Z,86.70
2018-05-13T03:58:37.437Z,85.00
2018-05-13T04:01:03.719Z,84.90
2018-05-13T04:03:30.736Z,86.70
2018-05-13T04:05:57.893Z,86.80
2018-05-13T04:08:45.813Z,88.30
2018-05-13T04:11:25.233Z,88.70
2018-05-13T04:14:03.953Z,88.50
2018-05-13T04:16:30.234Z,90.00
2018-05-13T04:18:57.233Z,88.90
2018-05-13T04:21:24.282Z,89.80
2018-05-13T04:23:50.541Z,89.80
2018-05-13T04:26:16.809Z,88.10
2018-05-13T04:28:43.113Z,88.90
2018-05-13T04:31:09.354Z,89.70
2018-05-13T04:33:36.392Z,90.70
2018-05-13T04:36:03.415Z,90.40
2018-05-13T04:38:29.678Z,90.50
2018-05-13T04:40:56.750Z,89.50
2018-05-13T04:43:23.009Z,89.80
2018-05-13T04:45:49.295Z,90.30
2018-05-13T04:48:15.927Z,88.90
2018-05-13T04:50:42.191Z,89.30
2018-05-13T04:53:08.461Z,89.50
2018-05-13T04:55:34.753Z,88.10
2018-05-13T04:58:01.031Z,87.00
2018-05-13T05:00:28.037Z,86.10
2018-05-13T05:02:54.623Z,85.50
2018-05-13T05:05:21.624Z,82.00
2018-05-13T05:07:47.897Z,82.00
2018-05-13T05:10:14.919Z,80.50
2018-05-13T05:12:41.181Z,80.20
2018-05-13T05:15:08.191Z,81.10
2018-05-13T05:17:34.491Z,81.20
2018-05-13T05:20:00.777Z,80.80
2018-05-13T05:22:27.783Z,82.30
2018-05-13T05:24:54.100Z,82.30
2018-05-13T05:27:20.374Z,83.00
2018-05-13T05:29:46.629Z,82.00
2018-05-13T05:32:12.935Z,84.00
2018-05-13T05:34:39.959Z,83.10
2018-05-13T05:37:06.222Z,82.50
2018-05-13T05:39:33.238Z,82.10
2018-05-13T05:41:59.523Z,81.90
2018-05-13T05:44:25.781Z,82.20
2018-05-13T05:46:52.073Z,82.80
2018-05-13T05:49:19.082Z,86.20
2018-05-13T05:51:45.343Z,86.40
2018-05-13T05:54:12.396Z,89.60
2018-05-13T05:56:39.414Z,90.10
2018-05-13T05:59:05.666Z,89.50
2018-05-13T06:01:32.707Z,90.20
2018-05-13T06:03:59.722Z,90.10
2018-05-13T06:06:25.997Z,90.40
2018-05-13T06:08:52.302Z,90.20
2018-05-13T06:11:19.318Z,88.10
2018-05-13T06:13:45.585Z,87.60
2018-05-13T06:16:11.958Z,85.40
2018-05-13T06:18:38.202Z,83.70
2018-05-13T06:21:04.454Z,82.90
2018-05-13T06:23:30.737Z,80.20
2018-05-13T06:25:57.010Z,79.50
2018-05-13T06:28:23.257Z,76.90
2018-05-13T06:30:49.782Z,78.40
2018-05-13T06:33:16.039Z,78.20
2018-05-13T06:35:43.041Z,81.50
2018-05-13T06:38:09.323Z,81.60
2018-05-13T06:40:36.334Z,81.30
2018-05-13T06:43:02.597Z,81.60
2018-05-13T06:45:29.630Z,83.80
2018-05-13T06:47:55.869Z,83.90
2018-05-13T06:50:22.888Z,85.10
2018-05-13T06:52:49.175Z,85.10
2018-05-13T06:55:15.460Z,85.50
2018-05-13T06:57:41.791Z,85.90
2018-05-13T07:00:08.779Z,87.80
2018-05-13T07:02:35.041Z,87.50
2018-05-13T07:05:01.286Z,89.60
2018-05-13T07:07:27.583Z,91.00
2018-05-13T07:09:53.867Z,92.00
2018-05-13T07:12:20.877Z,92.90
2018-05-13T07:14:47.200Z,92.60
2018-05-13T07:17:13.505Z,92.80
2018-05-13T07:19:39.763Z,92.10
2018-05-13T07:22:06.046Z,93.10
2018-05-13T07:24:33.047Z,94.00
2018-05-13T07:26:59.311Z,94.10
2018-05-13T07:29:26.349Z,95.70
2018-05-13T07:31:53.387Z,96.20
2018-05-13T07:34:19.647Z,96.20
2018-05-13T07:36:45.946Z,96.90
2018-05-13T07:39:12.210Z,98.60
2018-05-13T07:41:38.466Z,99.60
2018-05-13T07:44:04.771Z,99.90
2018-05-13T07:46:31.054Z,99.90
2018-05-13T07:48:57.318Z,99.60
2018-05-13T07:51:24.358Z,99.90
2018-05-13T07:53:51.381Z,99.90
2018-05-13T07:56:17.639Z,99.90
2018-05-13T07:58:44.658Z,99.90
2018-05-13T08:01:10.918Z,99.90
2018-05-13T08:03:37.914Z,99.90
2018-05-13T08:06:04.308Z,99.90
2018-05-13T08:08:30.512Z,99.90
2018-05-13T08:10:56.770Z,99.90
2018-05-13T08:13:23.045Z,99.90
2018-05-13T08:15:49.310Z,99.90
2018-05-13T08:18:16.322Z,99.90
2018-05-13T08:20:42.615Z,99.90
2018-05-13T08:23:08.882Z,99.90
2018-05-13T08:25:35.146Z,99.90
2018-05-13T08:28:02.208Z,99.90
2018-05-13T08:30:28.506Z,99.90
2018-05-13T08:32:55.511Z,99.90
2018-05-13T08:35:21.786Z,99.90
2018-05-13T08:37:48.060Z,99.90
2018-05-13T08:40:14.317Z,99.90
2018-05-13T08:42:40.621Z,99.90
2018-05-13T08:45:06.905Z,99.90
2018-05-13T08:47:33.211Z,99.90
2018-05-13T08:49:59.518Z,99.90
2018-05-13T08:52:25.781Z,99.90
2018-05-13T08:54:52.050Z,99.90
2018-05-13T08:57:18.349Z,99.90
2018-05-13T08:59:44.643Z,99.90
2018-05-13T09:02:11.618Z,99.90
2018-05-13T09:04:37.909Z,99.90
2018-05-13T09:07:04.181Z,99.90
2018-05-13T09:09:30.449Z,99.90
2018-05-13T09:11:56.746Z,99.90
2018-05-13T09:14:23.066Z,99.90
2018-05-13T09:16:49.302Z,99.90
2018-05-13T09:19:15.582Z,99.90
2018-05-13T09:21:41.846Z,99.90
2018-05-13T09:24:08.123Z,99.90
2018-05-13T09:26:35.241Z,99.90
2018-05-13T09:29:01.441Z,99.90
2018-05-13T09:31:27.715Z,99.90
2018-05-13T09:33:54.747Z,99.90
2018-05-13T09:36:21.008Z,99.90
2018-05-13T09:38:48.036Z,99.90
2018-05-13T09:41:15.061Z,99.90
2018-05-13T09:43:41.331Z,99.90
2018-05-13T09:46:08.350Z,99.90
2018-05-13T09:48:34.664Z,99.90
2018-05-13T09:51:00.946Z,99.90
2018-05-13T09:53:27.237Z,99.90
2018-05-13T09:55:53.542Z,99.90
2018-05-13T09:58:19.797Z,99.90
2018-05-13T10:00:46.067Z,99.90
2018-05-13T10:03:12.347Z,99.90
2018-05-13T10:05:38.631Z,99.90
2018-05-13T10:08:04.964Z,99.90
2018-05-13T10:10:31.275Z,99.90
2018-05-13T10:12:57.582Z,99.90
2018-05-13T10:15:23.847Z,99.90
2018-05-13T10:17:50.134Z,99.90
2018-05-13T10:20:16.378Z,99.90
2018-05-13T10:22:42.697Z,99.90
2018-05-13T10:25:08.978Z,99.90
2018-05-13T10:27:35.984Z,99.90
2018-05-13T10:30:02.278Z,99.90
2018-05-13T10:32:28.586Z,99.90
2018-05-13T10:34:54.873Z,99.90
2018-05-13T10:37:21.132Z,99.90
2018-05-13T10:39:47.450Z,99.90
2018-05-13T10:42:14.462Z,99.90
2018-05-13T10:44:40.730Z,99.90
2018-05-13T10:47:07.056Z,99.90
2018-05-13T10:49:34.069Z,99.90
2018-05-13T10:52:00.347Z,99.90
2018-05-13T10:54:26.642Z,99.90
2018-05-13T10:56:52.877Z,99.90
2018-05-13T10:59:19.139Z,99.90
2018-05-13T11:01:45.409Z,99.90
2018-05-13T11:04:11.673Z,99.90
2018-05-13T11:06:37.958Z,99.90
2018-05-13T11:09:04.263Z,99.90
2018-05-13T11:11:30.522Z,99.90
2018-05-13T11:13:56.807Z,99.90
2018-05-13T11:16:23.834Z,99.90
2018-05-13T11:18:50.146Z,99.90
2018-05-13T11:21:16.411Z,99.90
2018-05-13T11:23:42.701Z,99.90
2018-05-13T11:26:08.973Z,99.90
2018-05-13T11:28:35.966Z,99.90
2018-05-13T11:31:02.241Z,99.90
2018-05-13T11:33:29.242Z,99.90
2018-05-13T11:35:56.241Z,99.90
2018-05-13T11:38:22.521Z,99.90
2018-05-13T11:40:48.769Z,99.90
2018-05-13T11:43:15.030Z,99.90
2018-05-13T11:45:41.321Z,99.90
2018-05-13T11:48:07.578Z,99.90
2018-05-13T11:50:33.820Z,99.90
2018-05-13T11:53:00.837Z,99.90
2018-05-13T11:55:27.094Z,99.90
2018-05-13T11:57:54.155Z,99.90
2018-05-13T12:00:20.465Z,99.90
2018-05-13T12:02:47.486Z,99.90
2018-05-13T12:05:13.737Z,99.90
2018-05-13T12:07:40.018Z,99.90
2018-05-13T12:10:06.379Z,99.90
2018-05-13T12:12:32.643Z,99.90
2018-05-13T12:14:58.935Z,99.90
2018-05-13T12:17:25.206Z,99.90
2018-05-13T12:19:52.212Z,99.90
2018-05-13T12:22:18.525Z,99.90
2018-05-13T12:24:44.801Z,99.90
2018-05-13T12:27:11.801Z,99.90
2018-05-13T12:29:38.082Z,99.90
2018-05-13T12:32:05.087Z,99.90
2018-05-13T12:34:31.354Z,99.90
2018-05-13T12:36:58.373Z,99.90
2018-05-13T12:39:24.638Z,99.90
2018-05-13T12:41:51.654Z,99.90
2018-05-13T12:44:17.938Z,99.90
2018-05-13T12:46:44.201Z,99.90
2018-05-13T12:49:10.454Z,99.90
2018-05-13T12:51:36.758Z,99.90
2018-05-13T12:54:03.027Z,99.90
2018-05-13T12:56:30.039Z,99.90
2018-05-13T12:58:56.354Z,99.90
2018-05-13T13:01:22.622Z,99.90
2018-05-13T13:03:48.887Z,99.90
2018-05-13T13:06:15.244Z,99.90
2018-05-13T13:08:41.496Z,99.90
2018-05-13T13:11:07.756Z,99.90
2018-05-13T13:13:34.802Z,99.90
2018-05-13T13:16:01.044Z,99.90
2018-05-13T13:18:28.055Z,99.90
2018-05-13T13:20:54.378Z,99.90
2018-05-13T13:23:20.634Z,99.90
2018-05-13T13:25:46.902Z,99.90
2018-05-13T13:28:13.214Z,99.90
2018-05-13T13:30:39.514Z,99.90
2018-05-13T13:33:05.818Z,99.90
2018-05-13T13:35:32.098Z,99.90
2018-05-13T13:37:59.107Z,99.90
2018-05-13T13:40:25.378Z,99.90
2018-05-13T13:42:52.415Z,99.90
2018-05-13T13:45:19.414Z,99.90
2018-05-13T13:47:45.689Z,99.90
2018-05-13T13:50:12.745Z,99.90
2018-05-13T13:52:39.782Z,99.90
2018-05-13T13:55:06.773Z,99.90
2018-05-13T13:57:33.086Z,99.90
2018-05-13T13:59:59.349Z,99.90
2018-05-13T14:02:25.625Z,99.90
2018-05-13T14:04:52.657Z,99.90
2018-05-13T14:07:18.965Z,99.90
2018-05-13T14:09:45.238Z,99.90
2018-05-13T14:12:11.526Z,99.90
2018-05-13T14:14:37.798Z,99.90
2018-05-13T14:17:04.801Z,99.90
2018-05-13T14:19:31.094Z,99.90
2018-05-13T14:21:57.387Z,99.90
2018-05-13T14:24:23.694Z,99.90
2018-05-13T14:26:49.974Z,99.90
2018-05-13T14:29:16.310Z,99.90
2018-05-13T14:31:42.575Z,99.90
2018-05-13T14:34:08.847Z,99.90
2018-05-13T14:36:35.117Z,99.90
2018-05-13T14:39:11.821Z,99.90
2018-05-13T14:41:27.669Z,99.90
2018-05-13T14:43:53.966Z,99.90
2018-05-13T14:46:20.962Z,99.90
2018-05-13T14:48:47.258Z,99.90
2018-05-13T14:51:13.537Z,99.90
2018-05-13T14:53:39.806Z,99.90
2018-05-13T14:56:06.102Z,99.90
2018-05-13T14:58:32.354Z,99.90
2018-05-13T15:00:58.603Z,99.90
2018-05-13T15:03:24.885Z,99.90
2018-05-13T15:05:51.223Z,99.90
2018-05-13T15:08:17.475Z,99.90
2018-05-13T15:10:43.766Z,99.90
2018-05-13T15:13:10.020Z,99.90
2018-05-13T15:15:36.282Z,99.90
2018-05-13T15:18:03.349Z,99.90
2018-05-13T15:20:29.623Z,99.90
2018-05-13T15:22:55.898Z,99.90
2018-05-13T15:25:22.177Z,99.90
2018-05-13T15:27:48.436Z,99.90
2018-05-13T15:30:14.701Z,99.90
2018-05-13T15:32:41.008Z,99.90
2018-05-13T15:35:07.277Z,99.90
2018-05-13T15:37:33.558Z,99.90
2018-05-13T15:39:59.922Z,99.90
2018-05-13T15:42:26.210Z,99.90
2018-05-13T15:44:53.298Z,99.90
2018-05-13T15:47:19.619Z,99.90
2018-05-13T15:49:45.898Z,99.90
2018-05-13T15:52:12.170Z,99.90
2018-05-13T15:54:38.461Z,99.90
2018-05-13T15:57:04.717Z,99.90
2018-05-13T15:59:31.710Z,99.90
2018-05-13T16:01:58.042Z,99.90
2018-05-13T16:04:24.309Z,99.90
2018-05-13T16:06:50.579Z,99.90
2018-05-13T16:09:16.903Z,99.90
2018-05-13T16:11:43.197Z,99.90
2018-05-13T16:14:11.332Z,99.90
2018-05-13T16:16:37.639Z,99.90
2018-05-13T16:19:04.058Z,99.90
2018-05-13T16:21:30.270Z,99.90
2018-05-13T16:23:57.556Z,99.90
2018-05-13T16:26:23.875Z,99.90
2018-05-13T16:28:50.181Z,99.90
2018-05-13T16:31:16.481Z,99.90
2018-05-13T16:33:42.746Z,99.90
2018-05-13T16:36:09.785Z,99.90
2018-05-13T16:38:37.012Z,99.90
2018-05-13T16:41:03.326Z,99.90
2018-05-13T16:43:29.669Z,99.90
2018-05-13T16:45:55.998Z,99.90
2018-05-13T16:48:22.278Z,99.90
2018-05-13T16:50:49.298Z,99.90
2018-05-13T16:53:15.651Z,99.90
2018-05-13T16:55:41.878Z,99.90
2018-05-13T16:58:08.892Z,99.90
2018-05-13T17:00:35.193Z,99.90
2018-05-13T17:03:01.519Z,99.90
2018-05-13T17:05:27.828Z,99.90
2018-05-13T17:07:54.154Z,99.90
2018-05-13T17:10:21.211Z,99.90
2018-05-13T17:12:48.226Z,99.90
2018-05-13T17:15:14.530Z,99.90
2018-05-13T17:17:40.851Z,99.90
2018-05-13T17:20:07.252Z,99.90
2018-05-13T17:22:33.634Z,99.90
2018-05-13T17:24:59.956Z,99.90
2018-05-13T17:27:26.257Z,99.90
2018-05-13T17:29:52.578Z,99.90
2018-05-13T17:32:20.626Z,99.90
2018-05-13T17:34:46.962Z,99.90
2018-05-13T17:37:14.207Z,99.90
2018-05-13T17:39:40.478Z,99.90
2018-05-13T17:42:06.943Z,99.90
2018-05-13T17:44:34.294Z,99.90
2018-05-13T17:47:00.700Z,99.90
2018-05-13T17:49:27.035Z,99.90
2018-05-13T17:51:53.453Z,99.90
2018-05-13T17:54:19.999Z,99.90
2018-05-13T17:56:46.460Z,99.90
2018-05-13T17:59:12.856Z,99.90
2018-05-13T18:01:39.159Z,99.90
2018-05-13T18:04:06.245Z,99.90
2018-05-13T18:06:32.635Z,99.90
2018-05-13T18:08:58.954Z,99.90
2018-05-13T18:11:25.246Z,99.90
2018-05-13T18:13:51.596Z,99.90
2018-05-13T18:16:17.892Z,99.90
2018-05-13T18:18:44.172Z,99.90
2018-05-13T18:21:10.576Z,99.90
2018-05-13T18:23:36.871Z,99.90
2018-05-13T18:26:03.886Z,99.90
2018-05-13T18:28:30.196Z,99.90
2018-05-13T18:30:56.482Z,99.90
2018-05-13T18:33:23.524Z,99.90
2018-05-13T18:35:50.592Z,99.90
2018-05-13T18:38:16.879Z,99.90
2018-05-13T18:40:43.956Z,99.90
2018-05-13T18:43:10.344Z,99.90
2018-05-13T18:45:36.642Z,99.90
2018-05-13T18:48:02.973Z,99.90
2018-05-13T18:50:29.304Z,99.90
2018-05-13T18:52:55.619Z,99.90
2018-05-13T18:55:21.915Z,99.90
2018-05-13T18:57:49.088Z,99.90
2018-05-13T19:00:15.400Z,99.90
2018-05-13T19:02:41.695Z,99.90
2018-05-13T19:05:08.046Z,99.90
2018-05-13T19:07:34.426Z,99.90
2018-05-13T19:10:00.754Z,99.90
2018-05-13T19:12:27.094Z,99.90
2018-05-13T19:14:53.572Z,99.90
2018-05-13T19:17:19.887Z,99.90
2018-05-13T19:19:46.255Z,99.90
2018-05-13T19:22:12.556Z,99.90
2018-05-13T19:24:38.833Z,99.90
2018-05-13T19:27:06.682Z,99.90
2018-05-13T19:29:33.091Z,99.90
2018-05-13T19:31:59.426Z,99.90
2018-05-13T19:34:25.714Z,99.90
2018-05-13T19:36:52.083Z,99.90
2018-05-13T19:39:18.317Z,99.90
2018-05-13T19:41:44.601Z,99.90
2018-05-13T19:44:10.973Z,99.90
2018-05-13T19:46:37.395Z,99.90
2018-05-13T19:49:03.708Z,99.90
2018-05-13T19:51:30.015Z,99.90
2018-05-13T19:53:56.337Z,99.90
2018-05-13T19:56:22.671Z,99.90
2018-05-13T19:58:48.958Z,99.90
2018-05-13T20:01:15.227Z,99.90
2018-05-13T20:03:42.354Z,99.90
2018-05-13T20:06:08.666Z,99.90
2018-05-13T20:08:34.942Z,99.90
2018-05-13T20:11:01.970Z,99.90
2018-05-13T20:13:28.227Z,99.90
2018-05-13T20:15:54.509Z,99.90
2018-05-13T20:18:20.806Z,99.90
2018-05-13T20:20:47.107Z,99.90
2018-05-13T20:23:24.582Z,99.90
2018-05-13T20:25:51.513Z,99.90
2018-05-13T20:28:17.802Z,99.90
2018-05-13T20:30:44.094Z,99.90
2018-05-13T20:33:11.166Z,99.90
2018-05-13T20:35:37.501Z,99.90
2018-05-13T20:38:03.834Z,99.90
2018-05-13T20:40:30.091Z,99.90
2018-05-13T20:42:56.375Z,99.90
2018-05-13T20:45:23.426Z,99.90
2018-05-13T20:47:49.861Z,99.90
2018-05-13T20:50:16.287Z,99.90
2018-05-13T20:52:42.782Z,99.90
2018-05-13T20:55:09.210Z,99.90
2018-05-13T20:57:36.751Z,99.90
2018-05-13T21:00:03.965Z,99.90
2018-05-13T21:02:30.682Z,99.90
2018-05-13T21:04:57.451Z,99.90
2018-05-13T21:07:23.823Z,99.90
2018-05-13T21:09:50.106Z,99.90
2018-05-13T21:12:17.144Z,99.90
2018-05-13T21:14:43.423Z,99.90
2018-05-13T21:17:11.528Z,99.90
2018-05-13T21:19:37.816Z,99.90
2018-05-13T21:22:04.107Z,99.90
2018-05-13T21:24:30.393Z,99.90
2018-05-13T21:26:56.710Z,99.90
2018-05-13T21:29:22.970Z,99.90
2018-05-13T21:31:49.239Z,99.90
2018-05-13T21:34:16.251Z,99.90
2018-05-13T21:36:42.533Z,99.90
2018-05-13T21:39:08.794Z,99.90
2018-05-13T21:41:35.082Z,99.90
2018-05-13T21:44:01.375Z,99.90
2018-05-13T21:46:27.648Z,99.90
2018-05-13T21:48:53.952Z,99.90
2018-05-13T21:51:20.207Z,99.90
2018-05-13T21:53:46.478Z,99.90
2018-05-13T21:56:12.756Z,99.90
2018-05-13T21:58:39.067Z,99.90
2018-05-13T22:01:05.386Z,99.90
2018-05-13T22:03:31.670Z,99.90
2018-05-13T22:05:57.970Z,99.90
2018-05-13T22:08:24.979Z,99.90
2018-05-13T22:10:51.262Z,99.90
2018-05-13T22:13:17.546Z,99.90
2018-05-13T22:15:43.802Z,99.90
2018-05-13T22:18:10.814Z,99.90
2018-05-13T22:20:37.112Z,99.90
2018-05-13T22:23:03.382Z,99.90
2018-05-13T22:25:29.667Z,99.90
2018-05-13T22:27:55.948Z,99.90
2018-05-13T22:30:22.230Z,99.90
2018-05-13T22:32:48.490Z,99.90
2018-05-13T22:35:14.775Z,99.90
2018-05-13T22:37:41.027Z,99.90
2018-05-13T22:40:07.310Z,99.90
2018-05-13T22:42:33.561Z,99.90
2018-05-13T22:44:59.890Z,99.90
2018-05-13T22:47:26.311Z,99.90
2018-05-13T22:49:52.530Z,99.90
2018-05-13T22:52:18.828Z,99.90
2018-05-13T22:54:45.804Z,99.90
2018-05-13T22:57:12.078Z,99.90
2018-05-13T22:59:38.350Z,99.90
2018-05-13T23:02:04.664Z,99.90
2018-05-13T23:04:30.969Z,99.90
2018-05-13T23:06:57.258Z,99.90
2018-05-13T23:09:23.497Z,99.90
2018-05-13T23:11:50.517Z,99.90
2018-05-13T23:14:16.802Z,99.90
2018-05-13T23:16:43.108Z,99.90
2018-05-13T23:19:10.142Z,99.90
2018-05-13T23:21:36.495Z,99.90
2018-05-13T23:24:02.718Z,99.90
2018-05-13T23:26:29.021Z,99.90
2018-05-13T23:28:55.310Z,99.90
2018-05-13T23:31:21.579Z,99.90
2018-05-13T23:33:47.850Z,99.90
2018-05-13T23:36:14.151Z,99.90
2018-05-13T23:38:40.461Z,99.90
2018-05-13T23:41:06.782Z,99.90
2018-05-13T23:43:33.144Z,99.90
2018-05-13T23:45:59.338Z,99.90
2018-05-13T23:48:25.638Z,99.90
2018-05-13T23:50:51.918Z,99.90
2018-05-13T23:53:18.202Z,99.90
2018-05-13T23:55:44.474Z,99.90
2018-05-13T23:58:10.753Z,99.90
